sensor_id;sensor_type;location;lat;lon;timestamp;P1;durP1;ratioP1;P2;durP2;ratioP2
42488;SDS011;28118;52.388;9.452;2022-09-03T00:01:21;6.88;;;5.25;;
42488;SDS011;28118;52.388;9.452;2022-09-03T00:03:56;5.00;;;3.88;;
42488;SDS011;28118;52.388;9.452;2022-09-03T00:06:39;5.25;;;4.13;;
42488;SDS011;28118;52.388;9.452;2022-09-03T00:09:12;7.22;;;3.25;;
42488;SDS011;28118;52.388;9.452;2022-09-03T00:17:12;5.75;;;3.15;;
42488;SDS011;28118;52.388;9.452;2022-09-03T00:19:45;3.78;;;1.90;;
42488;SDS011;28118;52.388;9.452;2022-09-03T00:22:26;5.10;;;2.50;;
42488;SDS011;28118;52.388;9.452;2022-09-03T00:24:57;3.63;;;2.65;;
42488;SDS011;28118;52.388;9.452;2022-09-03T00:27:28;2.90;;;2.63;;
42488;SDS011;28118;52.388;9.452;2022-09-03T00:30:00;3.65;;;2.60;;
42488;SDS011;28118;52.388;9.452;2022-09-03T00:38:28;2.58;;;2.08;;
42488;SDS011;28118;52.388;9.452;2022-09-03T00:40:59;3.33;;;2.60;;
42488;SDS011;28118;52.388;9.452;2022-09-03T00:46:10;4.63;;;2.33;;
42488;SDS011;28118;52.388;9.452;2022-09-03T00:51:17;4.88;;;2.72;;
42488;SDS011;28118;52.388;9.452;2022-09-03T00:53:59;3.97;;;2.70;;
42488;SDS011;28118;52.388;9.452;2022-09-03T00:59:20;5.32;;;3.55;;
42488;SDS011;28118;52.388;9.452;2022-09-03T01:04:50;2.58;;;2.38;;
42488;SDS011;28118;52.388;9.452;2022-09-03T01:10:21;16.37;;;4.07;;
42488;SDS011;28118;52.388;9.452;2022-09-03T01:13:12;2.65;;;2.42;;
42488;SDS011;28118;52.388;9.452;2022-09-03T01:18:32;6.55;;;3.88;;
42488;SDS011;28118;52.388;9.452;2022-09-03T01:28:56;4.55;;;3.38;;
42488;SDS011;28118;52.388;9.452;2022-09-03T01:34:21;3.05;;;2.50;;
42488;SDS011;28118;52.388;9.452;2022-09-03T01:40:27;3.47;;;3.17;;
42488;SDS011;28118;52.388;9.452;2022-09-03T01:45:58;5.57;;;3.87;;
42488;SDS011;28118;52.388;9.452;2022-09-03T01:48:36;4.93;;;3.47;;
42488;SDS011;28118;52.388;9.452;2022-09-03T01:51:17;4.72;;;3.88;;
42488;SDS011;28118;52.388;9.452;2022-09-03T01:56:32;2.45;;;2.25;;
42488;SDS011;28118;52.388;9.452;2022-09-03T01:59:26;7.63;;;3.55;;
42488;SDS011;28118;52.388;9.452;2022-09-03T02:02:30;3.80;;;3.03;;
42488;SDS011;28118;52.388;9.452;2022-09-03T02:04:59;7.47;;;4.57;;
42488;SDS011;28118;52.388;9.452;2022-09-03T02:07:35;5.45;;;3.72;;
42488;SDS011;28118;52.388;9.452;2022-09-03T02:10:08;3.88;;;3.47;;
42488;SDS011;28118;52.388;9.452;2022-09-03T02:12:38;4.35;;;3.95;;
42488;SDS011;28118;52.388;9.452;2022-09-03T02:15:12;5.53;;;3.90;;
42488;SDS011;28118;52.388;9.452;2022-09-03T02:17:44;6.95;;;3.10;;
42488;SDS011;28118;52.388;9.452;2022-09-03T02:20:17;5.43;;;4.35;;
42488;SDS011;28118;52.388;9.452;2022-09-03T02:22:46;6.63;;;3.20;;
42488;SDS011;28118;52.388;9.452;2022-09-03T02:25:15;5.18;;;2.95;;
42488;SDS011;28118;52.388;9.452;2022-09-03T02:27:42;4.50;;;3.53;;
42488;SDS011;28118;52.388;9.452;2022-09-03T02:30:10;3.15;;;2.63;;
42488;SDS011;28118;52.388;9.452;2022-09-03T02:32:37;4.90;;;4.10;;
42488;SDS011;28118;52.388;9.452;2022-09-03T02:35:04;8.40;;;2.97;;
42488;SDS011;28118;52.388;9.452;2022-09-03T02:37:31;2.95;;;2.60;;
42488;SDS011;28118;52.388;9.452;2022-09-03T02:39:58;7.97;;;2.97;;
42488;SDS011;28118;52.388;9.452;2022-09-03T02:42:25;4.40;;;3.97;;
42488;SDS011;28118;52.388;9.452;2022-09-03T02:44:53;3.67;;;3.22;;
42488;SDS011;28118;52.388;9.452;2022-09-03T02:47:23;4.00;;;3.58;;
42488;SDS011;28118;52.388;9.452;2022-09-03T02:49:57;5.90;;;3.60;;
42488;SDS011;28118;52.388;9.452;2022-09-03T02:52:23;3.50;;;3.20;;
42488;SDS011;28118;52.388;9.452;2022-09-03T02:54:50;3.90;;;3.38;;
42488;SDS011;28118;52.388;9.452;2022-09-03T02:57:17;4.57;;;4.10;;
42488;SDS011;28118;52.388;9.452;2022-09-03T02:59:53;8.27;;;3.58;;
42488;SDS011;28118;52.388;9.452;2022-09-03T03:02:19;5.00;;;4.60;;
42488;SDS011;28118;52.388;9.452;2022-09-03T03:04:46;4.88;;;4.05;;
42488;SDS011;28118;52.388;9.452;2022-09-03T03:07:13;4.10;;;3.28;;
42488;SDS011;28118;52.388;9.452;2022-09-03T03:09:39;4.38;;;3.10;;
42488;SDS011;28118;52.388;9.452;2022-09-03T03:12:06;4.70;;;3.17;;
42488;SDS011;28118;52.388;9.452;2022-09-03T03:14:35;3.10;;;2.60;;
42488;SDS011;28118;52.388;9.452;2022-09-03T03:17:02;3.97;;;3.65;;
42488;SDS011;28118;52.388;9.452;2022-09-03T03:19:29;3.28;;;2.60;;
42488;SDS011;28118;52.388;9.452;2022-09-03T03:21:55;5.88;;;4.13;;
42488;SDS011;28118;52.388;9.452;2022-09-03T03:24:22;3.50;;;3.00;;
42488;SDS011;28118;52.388;9.452;2022-09-03T03:26:49;4.40;;;2.95;;
42488;SDS011;28118;52.388;9.452;2022-09-03T03:29:15;4.68;;;3.17;;
42488;SDS011;28118;52.388;9.452;2022-09-03T03:31:46;3.42;;;2.65;;
42488;SDS011;28118;52.388;9.452;2022-09-03T03:34:13;4.80;;;4.10;;
42488;SDS011;28118;52.388;9.452;2022-09-03T03:36:39;9.60;;;3.75;;
42488;SDS011;28118;52.388;9.452;2022-09-03T03:39:06;5.00;;;3.17;;
42488;SDS011;28118;52.388;9.452;2022-09-03T03:41:36;2.78;;;2.53;;
42488;SDS011;28118;52.388;9.452;2022-09-03T03:44:04;2.70;;;2.50;;
42488;SDS011;28118;52.388;9.452;2022-09-03T03:46:36;4.38;;;3.70;;
42488;SDS011;28118;52.388;9.452;2022-09-03T03:49:04;11.60;;;3.67;;
42488;SDS011;28118;52.388;9.452;2022-09-03T03:51:32;4.57;;;2.90;;
42488;SDS011;28118;52.388;9.452;2022-09-03T03:54:00;3.50;;;2.70;;
42488;SDS011;28118;52.388;9.452;2022-09-03T03:56:31;2.78;;;2.50;;
42488;SDS011;28118;52.388;9.452;2022-09-03T03:58:58;5.43;;;2.67;;
42488;SDS011;28118;52.388;9.452;2022-09-03T04:01:25;2.30;;;2.10;;
42488;SDS011;28118;52.388;9.452;2022-09-03T04:03:53;3.80;;;2.72;;
42488;SDS011;28118;52.388;9.452;2022-09-03T04:06:22;2.42;;;2.22;;
42488;SDS011;28118;52.388;9.452;2022-09-03T04:08:49;9.23;;;3.08;;
42488;SDS011;28118;52.388;9.452;2022-09-03T04:11:16;6.38;;;4.00;;
42488;SDS011;28118;52.388;9.452;2022-09-03T04:13:45;3.53;;;3.22;;
42488;SDS011;28118;52.388;9.452;2022-09-03T04:16:14;4.43;;;2.95;;
42488;SDS011;28118;52.388;9.452;2022-09-03T04:18:43;3.53;;;2.72;;
42488;SDS011;28118;52.388;9.452;2022-09-03T04:21:12;4.20;;;3.72;;
42488;SDS011;28118;52.388;9.452;2022-09-03T04:23:44;6.20;;;3.47;;
42488;SDS011;28118;52.388;9.452;2022-09-03T04:26:13;8.25;;;4.57;;
42488;SDS011;28118;52.388;9.452;2022-09-03T04:28:42;3.90;;;3.25;;
42488;SDS011;28118;52.388;9.452;2022-09-03T04:31:11;4.53;;;3.70;;
42488;SDS011;28118;52.388;9.452;2022-09-03T04:33:39;12.70;;;3.97;;
42488;SDS011;28118;52.388;9.452;2022-09-03T04:36:10;4.57;;;2.65;;
42488;SDS011;28118;52.388;9.452;2022-09-03T04:38:43;3.65;;;2.95;;
42488;SDS011;28118;52.388;9.452;2022-09-03T04:41:15;7.32;;;3.17;;
42488;SDS011;28118;52.388;9.452;2022-09-03T04:43:44;4.65;;;3.40;;
42488;SDS011;28118;52.388;9.452;2022-09-03T04:46:16;5.13;;;4.10;;
42488;SDS011;28118;52.388;9.452;2022-09-03T04:48:46;5.82;;;3.45;;
42488;SDS011;28118;52.388;9.452;2022-09-03T04:51:17;5.15;;;3.90;;
42488;SDS011;28118;52.388;9.452;2022-09-03T04:53:46;12.48;;;3.95;;
42488;SDS011;28118;52.388;9.452;2022-09-03T04:56:19;12.13;;;2.72;;
42488;SDS011;28118;52.388;9.452;2022-09-03T04:58:57;16.25;;;3.78;;
42488;SDS011;28118;52.388;9.452;2022-09-03T05:01:27;5.05;;;3.15;;
42488;SDS011;28118;52.388;9.452;2022-09-03T05:03:56;5.78;;;4.43;;
42488;SDS011;28118;52.388;9.452;2022-09-03T05:06:24;4.00;;;2.85;;
42488;SDS011;28118;52.388;9.452;2022-09-03T05:08:55;9.50;;;3.55;;
42488;SDS011;28118;52.388;9.452;2022-09-03T05:11:23;6.47;;;4.40;;
42488;SDS011;28118;52.388;9.452;2022-09-03T05:13:52;4.55;;;2.42;;
42488;SDS011;28118;52.388;9.452;2022-09-03T05:16:20;5.25;;;3.65;;
42488;SDS011;28118;52.388;9.452;2022-09-03T05:18:50;10.27;;;4.15;;
42488;SDS011;28118;52.388;9.452;2022-09-03T05:21:18;7.15;;;3.45;;
42488;SDS011;28118;52.388;9.452;2022-09-03T05:23:46;2.60;;;2.22;;
42488;SDS011;28118;52.388;9.452;2022-09-03T05:26:19;2.85;;;2.42;;
42488;SDS011;28118;52.388;9.452;2022-09-03T05:28:47;4.13;;;2.47;;
42488;SDS011;28118;52.388;9.452;2022-09-03T05:31:20;9.88;;;2.42;;
42488;SDS011;28118;52.388;9.452;2022-09-03T05:33:48;2.70;;;2.50;;
42488;SDS011;28118;52.388;9.452;2022-09-03T05:36:18;3.65;;;3.35;;
42488;SDS011;28118;52.388;9.452;2022-09-03T05:38:48;2.47;;;2.03;;
42488;SDS011;28118;52.388;9.452;2022-09-03T05:41:15;7.78;;;3.40;;
42488;SDS011;28118;52.388;9.452;2022-09-03T05:43:44;2.50;;;2.22;;
42488;SDS011;28118;52.388;9.452;2022-09-03T05:46:16;3.58;;;3.28;;
42488;SDS011;28118;52.388;9.452;2022-09-03T05:48:43;6.03;;;3.17;;
42488;SDS011;28118;52.388;9.452;2022-09-03T05:51:11;3.10;;;2.78;;
42488;SDS011;28118;52.388;9.452;2022-09-03T05:53:44;3.55;;;2.72;;
42488;SDS011;28118;52.388;9.452;2022-09-03T05:56:13;8.32;;;3.90;;
42488;SDS011;28118;52.388;9.452;2022-09-03T05:58:45;5.80;;;2.75;;
42488;SDS011;28118;52.388;9.452;2022-09-03T06:04:00;2.20;;;1.75;;
42488;SDS011;28118;52.388;9.452;2022-09-03T06:08:57;3.38;;;3.05;;
42488;SDS011;28118;52.388;9.452;2022-09-03T06:11:25;2.17;;;1.70;;
42488;SDS011;28118;52.388;9.452;2022-09-03T06:13:54;3.05;;;1.77;;
42488;SDS011;28118;52.388;9.452;2022-09-03T06:16:23;5.47;;;3.25;;
42488;SDS011;28118;52.388;9.452;2022-09-03T06:18:57;3.33;;;2.78;;
42488;SDS011;28118;52.388;9.452;2022-09-03T06:21:28;8.05;;;2.80;;
42488;SDS011;28118;52.388;9.452;2022-09-03T06:23:55;10.15;;;4.47;;
42488;SDS011;28118;52.388;9.452;2022-09-03T06:26:25;2.88;;;2.13;;
42488;SDS011;28118;52.388;9.452;2022-09-03T06:28:54;11.98;;;3.28;;
42488;SDS011;28118;52.388;9.452;2022-09-03T06:31:22;2.78;;;2.33;;
42488;SDS011;28118;52.388;9.452;2022-09-03T06:33:49;3.33;;;2.17;;
42488;SDS011;28118;52.388;9.452;2022-09-03T06:36:18;2.38;;;2.00;;
42488;SDS011;28118;52.388;9.452;2022-09-03T06:38:45;3.90;;;2.08;;
42488;SDS011;28118;52.388;9.452;2022-09-03T06:41:16;3.47;;;2.22;;
42488;SDS011;28118;52.388;9.452;2022-09-03T06:43:51;5.53;;;2.92;;
42488;SDS011;28118;52.388;9.452;2022-09-03T06:46:39;4.63;;;2.22;;
42488;SDS011;28118;52.388;9.452;2022-09-03T06:49:09;3.53;;;2.40;;
42488;SDS011;28118;52.388;9.452;2022-09-03T06:51:37;5.60;;;3.72;;
42488;SDS011;28118;52.388;9.452;2022-09-03T06:54:05;5.72;;;3.53;;
42488;SDS011;28118;52.388;9.452;2022-09-03T06:56:34;3.13;;;2.83;;
42488;SDS011;28118;52.388;9.452;2022-09-03T06:59:07;2.85;;;2.35;;
42488;SDS011;28118;52.388;9.452;2022-09-03T07:01:35;2.88;;;2.35;;
42488;SDS011;28118;52.388;9.452;2022-09-03T07:04:05;2.53;;;2.30;;
42488;SDS011;28118;52.388;9.452;2022-09-03T07:06:36;3.05;;;2.75;;
42488;SDS011;28118;52.388;9.452;2022-09-03T07:11:32;7.20;;;2.78;;
42488;SDS011;28118;52.388;9.452;2022-09-03T07:14:01;5.40;;;2.47;;
42488;SDS011;28118;52.388;9.452;2022-09-03T07:16:38;3.80;;;3.25;;
42488;SDS011;28118;52.388;9.452;2022-09-03T07:19:07;5.38;;;3.13;;
42488;SDS011;28118;52.388;9.452;2022-09-03T07:21:34;7.47;;;2.50;;
42488;SDS011;28118;52.388;9.452;2022-09-03T07:24:02;13.52;;;2.42;;
42488;SDS011;28118;52.388;9.452;2022-09-03T07:26:31;2.15;;;1.95;;
42488;SDS011;28118;52.388;9.452;2022-09-03T07:29:00;3.72;;;2.45;;
42488;SDS011;28118;52.388;9.452;2022-09-03T07:31:28;8.95;;;2.42;;
42488;SDS011;28118;52.388;9.452;2022-09-03T07:33:58;5.80;;;3.67;;
42488;SDS011;28118;52.388;9.452;2022-09-03T07:36:26;4.93;;;2.72;;
42488;SDS011;28118;52.388;9.452;2022-09-03T07:39:00;2.60;;;2.25;;
42488;SDS011;28118;52.388;9.452;2022-09-03T07:41:27;6.82;;;2.60;;
42488;SDS011;28118;52.388;9.452;2022-09-03T07:43:58;4.20;;;2.78;;
42488;SDS011;28118;52.388;9.452;2022-09-03T07:46:31;4.18;;;2.88;;
42488;SDS011;28118;52.388;9.452;2022-09-03T07:49:00;3.65;;;2.75;;
42488;SDS011;28118;52.388;9.452;2022-09-03T07:51:28;3.47;;;3.00;;
42488;SDS011;28118;52.388;9.452;2022-09-03T07:53:58;10.18;;;3.15;;
42488;SDS011;28118;52.388;9.452;2022-09-03T07:56:30;3.42;;;2.20;;
42488;SDS011;28118;52.388;9.452;2022-09-03T07:58:57;4.38;;;3.05;;
42488;SDS011;28118;52.388;9.452;2022-09-03T08:01:24;6.40;;;3.30;;
42488;SDS011;28118;52.388;9.452;2022-09-03T08:03:53;4.68;;;3.13;;
42488;SDS011;28118;52.388;9.452;2022-09-03T08:06:21;12.60;;;3.35;;
42488;SDS011;28118;52.388;9.452;2022-09-03T08:08:56;10.57;;;4.55;;
42488;SDS011;28118;52.388;9.452;2022-09-03T08:11:30;3.38;;;2.67;;
42488;SDS011;28118;52.388;9.452;2022-09-03T08:14:00;1.83;;;1.63;;
42488;SDS011;28118;52.388;9.452;2022-09-03T08:16:32;4.70;;;3.00;;
42488;SDS011;28118;52.388;9.452;2022-09-03T08:19:01;6.03;;;4.10;;
42488;SDS011;28118;52.388;9.452;2022-09-03T08:21:27;15.23;;;3.88;;
42488;SDS011;28118;52.388;9.452;2022-09-03T08:23:55;5.15;;;2.63;;
42488;SDS011;28118;52.388;9.452;2022-09-03T08:26:35;5.63;;;2.90;;
42488;SDS011;28118;52.388;9.452;2022-09-03T08:29:04;11.07;;;3.28;;
42488;SDS011;28118;52.388;9.452;2022-09-03T08:31:31;2.13;;;1.92;;
42488;SDS011;28118;52.388;9.452;2022-09-03T08:33:59;3.45;;;1.92;;
42488;SDS011;28118;52.388;9.452;2022-09-03T08:36:35;4.57;;;2.58;;
42488;SDS011;28118;52.388;9.452;2022-09-03T08:39:04;11.40;;;4.78;;
42488;SDS011;28118;52.388;9.452;2022-09-03T08:41:40;3.72;;;3.13;;
42488;SDS011;28118;52.388;9.452;2022-09-03T08:44:17;7.32;;;2.55;;
42488;SDS011;28118;52.388;9.452;2022-09-03T08:46:50;11.85;;;2.83;;
42488;SDS011;28118;52.388;9.452;2022-09-03T08:52:32;5.05;;;2.60;;
42488;SDS011;28118;52.388;9.452;2022-09-03T08:55:19;6.80;;;2.25;;
42488;SDS011;28118;52.388;9.452;2022-09-03T09:12:00;3.50;;;2.45;;
42488;SDS011;28118;52.388;9.452;2022-09-03T09:17:44;3.60;;;2.42;;
42488;SDS011;28118;52.388;9.452;2022-09-03T09:20:52;2.78;;;2.10;;
42488;SDS011;28118;52.388;9.452;2022-09-03T09:25:56;4.95;;;2.10;;
42488;SDS011;28118;52.388;9.452;2022-09-03T09:28:33;6.20;;;2.95;;
42488;SDS011;28118;52.388;9.452;2022-09-03T09:31:03;3.42;;;1.92;;
42488;SDS011;28118;52.388;9.452;2022-09-03T09:33:37;5.43;;;2.67;;
42488;SDS011;28118;52.388;9.452;2022-09-03T09:36:05;2.47;;;2.28;;
42488;SDS011;28118;52.388;9.452;2022-09-03T09:38:37;2.28;;;2.08;;
42488;SDS011;28118;52.388;9.452;2022-09-03T09:41:38;4.70;;;2.78;;
42488;SDS011;28118;52.388;9.452;2022-09-03T09:43:59;7.72;;;2.88;;
42488;SDS011;28118;52.388;9.452;2022-09-03T09:46:37;4.68;;;2.50;;
42488;SDS011;28118;52.388;9.452;2022-09-03T09:49:24;2.88;;;1.80;;
42488;SDS011;28118;52.388;9.452;2022-09-03T09:52:00;8.68;;;3.55;;
42488;SDS011;28118;52.388;9.452;2022-09-03T09:54:33;5.88;;;3.05;;
42488;SDS011;28118;52.388;9.452;2022-09-03T09:57:01;6.32;;;2.85;;
42488;SDS011;28118;52.388;9.452;2022-09-03T09:59:30;9.55;;;5.95;;
42488;SDS011;28118;52.388;9.452;2022-09-03T10:02:07;11.68;;;2.90;;
42488;SDS011;28118;52.388;9.452;2022-09-03T10:04:39;2.38;;;1.70;;
42488;SDS011;28118;52.388;9.452;2022-09-03T10:07:22;3.75;;;2.00;;
42488;SDS011;28118;52.388;9.452;2022-09-03T10:10:02;8.23;;;3.60;;
42488;SDS011;28118;52.388;9.452;2022-09-03T10:17:59;3.65;;;2.38;;
42488;SDS011;28118;52.388;9.452;2022-09-03T10:20:30;6.05;;;2.30;;
42488;SDS011;28118;52.388;9.452;2022-09-03T10:23:23;3.88;;;2.88;;
42488;SDS011;28118;52.388;9.452;2022-09-03T10:26:03;4.78;;;3.28;;
42488;SDS011;28118;52.388;9.452;2022-09-03T10:28:40;10.82;;;3.40;;
42488;SDS011;28118;52.388;9.452;2022-09-03T10:33:52;6.88;;;3.38;;
42488;SDS011;28118;52.388;9.452;2022-09-03T10:39:01;5.70;;;3.22;;
42488;SDS011;28118;52.388;9.452;2022-09-03T10:52:31;3.58;;;1.73;;
42488;SDS011;28118;52.388;9.452;2022-09-03T10:55:19;7.07;;;1.75;;
42488;SDS011;28118;52.388;9.452;2022-09-03T11:00:45;3.03;;;2.25;;
42488;SDS011;28118;52.388;9.452;2022-09-03T11:08:41;2.63;;;2.05;;
42488;SDS011;28118;52.388;9.452;2022-09-03T11:11:15;6.65;;;1.85;;
42488;SDS011;28118;52.388;9.452;2022-09-03T11:13:51;5.68;;;2.83;;
42488;SDS011;28118;52.388;9.452;2022-09-03T11:16:30;2.42;;;1.27;;
42488;SDS011;28118;52.388;9.452;2022-09-03T11:19:01;4.00;;;2.22;;
42488;SDS011;28118;52.388;9.452;2022-09-03T11:21:31;4.22;;;2.88;;
42488;SDS011;28118;52.388;9.452;2022-09-03T11:24:04;2.80;;;2.15;;
42488;SDS011;28118;52.388;9.452;2022-09-03T11:26:45;5.50;;;2.30;;
42488;SDS011;28118;52.388;9.452;2022-09-03T11:32:00;9.30;;;3.08;;
42488;SDS011;28118;52.388;9.452;2022-09-03T11:34:44;7.18;;;1.52;;
42488;SDS011;28118;52.388;9.452;2022-09-03T11:40:06;3.63;;;2.05;;
42488;SDS011;28118;52.388;9.452;2022-09-03T11:42:42;2.83;;;2.22;;
42488;SDS011;28118;52.388;9.452;2022-09-03T11:47:52;6.95;;;2.47;;
42488;SDS011;28118;52.388;9.452;2022-09-03T11:50:23;5.97;;;2.85;;
42488;SDS011;28118;52.388;9.452;2022-09-03T11:52:53;2.65;;;1.80;;
42488;SDS011;28118;52.388;9.452;2022-09-03T11:55:33;2.53;;;1.77;;
42488;SDS011;28118;52.388;9.452;2022-09-03T11:58:25;6.00;;;1.65;;
42488;SDS011;28118;52.388;9.452;2022-09-03T12:00:58;2.33;;;1.67;;
42488;SDS011;28118;52.388;9.452;2022-09-03T12:03:28;6.10;;;1.48;;
42488;SDS011;28118;52.388;9.452;2022-09-03T12:09:38;3.13;;;1.75;;
42488;SDS011;28118;52.388;9.452;2022-09-03T12:17:53;2.17;;;1.50;;
42488;SDS011;28118;52.388;9.452;2022-09-03T12:20:59;8.20;;;2.00;;
42488;SDS011;28118;52.388;9.452;2022-09-03T12:23:28;2.80;;;1.75;;
42488;SDS011;28118;52.388;9.452;2022-09-03T12:26:00;2.60;;;1.38;;
42488;SDS011;28118;52.388;9.452;2022-09-03T12:28:36;6.85;;;2.08;;
42488;SDS011;28118;52.388;9.452;2022-09-03T12:31:19;4.18;;;1.80;;
42488;SDS011;28118;52.388;9.452;2022-09-03T12:34:07;9.20;;;2.65;;
42488;SDS011;28118;52.388;9.452;2022-09-03T12:42:05;2.10;;;1.35;;
42488;SDS011;28118;52.388;9.452;2022-09-03T12:47:02;4.43;;;1.70;;
42488;SDS011;28118;52.388;9.452;2022-09-03T12:49:50;1.95;;;1.48;;
42488;SDS011;28118;52.388;9.452;2022-09-03T12:57:29;4.53;;;2.05;;
42488;SDS011;28118;52.388;9.452;2022-09-03T13:00:02;2.78;;;1.63;;
42488;SDS011;28118;52.388;9.452;2022-09-03T13:02:54;1.73;;;1.35;;
42488;SDS011;28118;52.388;9.452;2022-09-03T13:05:25;6.68;;;2.88;;
42488;SDS011;28118;52.388;9.452;2022-09-03T13:08:01;1.45;;;1.10;;
42488;SDS011;28118;52.388;9.452;2022-09-03T13:10:32;2.53;;;1.85;;
42488;SDS011;28118;52.388;9.452;2022-09-03T13:13:16;6.32;;;1.70;;
42488;SDS011;28118;52.388;9.452;2022-09-03T13:16:11;9.13;;;1.88;;
42488;SDS011;28118;52.388;9.452;2022-09-03T13:21:45;5.10;;;1.30;;
42488;SDS011;28118;52.388;9.452;2022-09-03T13:26:51;3.58;;;1.38;;
42488;SDS011;28118;52.388;9.452;2022-09-03T13:32:33;2.20;;;1.50;;
42488;SDS011;28118;52.388;9.452;2022-09-03T13:41:10;3.92;;;2.20;;
42488;SDS011;28118;52.388;9.452;2022-09-03T13:43:56;4.32;;;1.52;;
42488;SDS011;28118;52.388;9.452;2022-09-03T13:46:32;1.70;;;1.25;;
42488;SDS011;28118;52.388;9.452;2022-09-03T14:00:48;1.83;;;1.55;;
42488;SDS011;28118;52.388;9.452;2022-09-03T14:03:41;2.55;;;1.95;;
42488;SDS011;28118;52.388;9.452;2022-09-03T14:17:38;6.35;;;2.13;;
42488;SDS011;28118;52.388;9.452;2022-09-03T14:20:25;1.77;;;1.30;;
42488;SDS011;28118;52.388;9.452;2022-09-03T14:25:30;1.73;;;1.55;;
42488;SDS011;28118;52.388;9.452;2022-09-03T14:28:14;2.85;;;1.48;;
42488;SDS011;28118;52.388;9.452;2022-09-03T14:36:11;2.70;;;1.70;;
42488;SDS011;28118;52.388;9.452;2022-09-03T14:38:57;3.95;;;1.80;;
42488;SDS011;28118;52.388;9.452;2022-09-03T14:41:36;3.45;;;1.63;;
42488;SDS011;28118;52.388;9.452;2022-09-03T14:44:23;2.05;;;1.67;;
42488;SDS011;28118;52.388;9.452;2022-09-03T14:57:47;7.22;;;2.42;;
42488;SDS011;28118;52.388;9.452;2022-09-03T15:03:33;4.90;;;2.40;;
42488;SDS011;28118;52.388;9.452;2022-09-03T15:09:05;5.67;;;1.70;;
42488;SDS011;28118;52.388;9.452;2022-09-03T15:11:45;2.55;;;1.83;;
42488;SDS011;28118;52.388;9.452;2022-09-03T15:14:26;3.30;;;1.98;;
42488;SDS011;28118;52.388;9.452;2022-09-03T15:17:16;2.95;;;1.70;;
42488;SDS011;28118;52.388;9.452;2022-09-03T15:22:39;5.18;;;1.85;;
42488;SDS011;28118;52.388;9.452;2022-09-03T15:28:10;11.13;;;2.58;;
42488;SDS011;28118;52.388;9.452;2022-09-03T15:30:56;6.50;;;2.28;;
42488;SDS011;28118;52.388;9.452;2022-09-03T15:33:34;2.40;;;1.73;;
42488;SDS011;28118;52.388;9.452;2022-09-03T15:36:34;4.47;;;1.83;;
42488;SDS011;28118;52.388;9.452;2022-09-03T15:39:08;2.25;;;1.48;;
42488;SDS011;28118;52.388;9.452;2022-09-03T15:42:09;6.50;;;2.15;;
42488;SDS011;28118;52.388;9.452;2022-09-03T15:44:44;4.05;;;2.95;;
42488;SDS011;28118;52.388;9.452;2022-09-03T15:47:36;7.47;;;2.47;;
42488;SDS011;28118;52.388;9.452;2022-09-03T15:53:20;6.20;;;1.92;;
42488;SDS011;28118;52.388;9.452;2022-09-03T15:56:08;3.53;;;1.70;;
42488;SDS011;28118;52.388;9.452;2022-09-03T16:04:38;2.50;;;1.77;;
42488;SDS011;28118;52.388;9.452;2022-09-03T16:10:18;2.20;;;1.85;;
42488;SDS011;28118;52.388;9.452;2022-09-03T16:13:01;1.95;;;1.63;;
42488;SDS011;28118;52.388;9.452;2022-09-03T16:15:37;1.88;;;1.15;;
42488;SDS011;28118;52.388;9.452;2022-09-03T16:18:22;1.92;;;1.63;;
42488;SDS011;28118;52.388;9.452;2022-09-03T16:20:55;3.90;;;2.10;;
42488;SDS011;28118;52.388;9.452;2022-09-03T16:23:53;10.40;;;2.13;;
42488;SDS011;28118;52.388;9.452;2022-09-03T16:29:12;2.20;;;1.85;;
42488;SDS011;28118;52.388;9.452;2022-09-03T16:31:55;3.05;;;2.15;;
42488;SDS011;28118;52.388;9.452;2022-09-03T16:34:44;6.20;;;2.50;;
42488;SDS011;28118;52.388;9.452;2022-09-03T16:43:14;7.53;;;1.63;;
42488;SDS011;28118;52.388;9.452;2022-09-03T17:00:00;2.10;;;1.67;;
42488;SDS011;28118;52.388;9.452;2022-09-03T17:19:10;3.00;;;1.90;;
42488;SDS011;28118;52.388;9.452;2022-09-03T17:24:54;3.50;;;2.22;;
42488;SDS011;28118;52.388;9.452;2022-09-03T17:49:45;2.70;;;2.38;;
42488;SDS011;28118;52.388;9.452;2022-09-03T17:54:56;7.45;;;3.65;;
42488;SDS011;28118;52.388;9.452;2022-09-03T17:57:49;3.58;;;2.53;;
42488;SDS011;28118;52.388;9.452;2022-09-03T18:00:23;3.10;;;2.38;;
42488;SDS011;28118;52.388;9.452;2022-09-03T18:03:24;2.28;;;1.63;;
42488;SDS011;28118;52.388;9.452;2022-09-03T18:05:59;2.10;;;1.50;;
42488;SDS011;28118;52.388;9.452;2022-09-03T18:16:36;2.40;;;2.08;;
42488;SDS011;28118;52.388;9.452;2022-09-03T18:19:18;5.47;;;2.65;;
42488;SDS011;28118;52.388;9.452;2022-09-03T18:21:54;3.78;;;1.70;;
42488;SDS011;28118;52.388;9.452;2022-09-03T18:24:57;2.30;;;1.58;;
42488;SDS011;28118;52.388;9.452;2022-09-03T18:27:45;3.88;;;2.13;;
42488;SDS011;28118;52.388;9.452;2022-09-03T18:30:34;5.45;;;2.33;;
42488;SDS011;28118;52.388;9.452;2022-09-03T18:33:20;3.20;;;2.30;;
42488;SDS011;28118;52.388;9.452;2022-09-03T18:36:08;4.25;;;3.33;;
42488;SDS011;28118;52.388;9.452;2022-09-03T18:38:57;3.05;;;2.75;;
42488;SDS011;28118;52.388;9.452;2022-09-03T18:42:00;5.60;;;2.75;;
42488;SDS011;28118;52.388;9.452;2022-09-03T18:48:16;8.07;;;2.45;;
42488;SDS011;28118;52.388;9.452;2022-09-03T19:00:48;3.58;;;2.60;;
42488;SDS011;28118;52.388;9.452;2022-09-03T19:16:19;11.80;;;4.22;;
42488;SDS011;28118;52.388;9.452;2022-09-03T19:22:39;3.55;;;3.13;;
42488;SDS011;28118;52.388;9.452;2022-09-03T19:25:26;4.03;;;3.47;;
42488;SDS011;28118;52.388;9.452;2022-09-03T19:31:12;16.55;;;8.43;;
42488;SDS011;28118;52.388;9.452;2022-09-03T19:37:15;10.55;;;8.45;;
42488;SDS011;28118;52.388;9.452;2022-09-03T19:49:17;9.05;;;5.47;;
42488;SDS011;28118;52.388;9.452;2022-09-03T19:52:26;6.10;;;5.43;;
42488;SDS011;28118;52.388;9.452;2022-09-03T19:55:19;6.80;;;5.13;;
42488;SDS011;28118;52.388;9.452;2022-09-03T19:58:08;8.52;;;5.35;;
42488;SDS011;28118;52.388;9.452;2022-09-03T20:01:08;5.72;;;4.07;;
42488;SDS011;28118;52.388;9.452;2022-09-03T20:03:54;5.55;;;3.33;;
42488;SDS011;28118;52.388;9.452;2022-09-03T20:06:43;4.93;;;4.10;;
42488;SDS011;28118;52.388;9.452;2022-09-03T20:09:31;3.85;;;3.00;;
42488;SDS011;28118;52.388;9.452;2022-09-03T20:12:25;3.13;;;2.83;;
42488;SDS011;28118;52.388;9.452;2022-09-03T20:14:57;4.45;;;3.03;;
42488;SDS011;28118;52.388;9.452;2022-09-03T20:20:14;4.60;;;3.00;;
42488;SDS011;28118;52.388;9.452;2022-09-03T20:28:29;10.30;;;5.28;;
42488;SDS011;28118;52.388;9.452;2022-09-03T20:36:39;10.85;;;9.43;;
42488;SDS011;28118;52.388;9.452;2022-09-03T20:44:50;13.98;;;12.07;;
42488;SDS011;28118;52.388;9.452;2022-09-03T20:52:56;18.15;;;13.07;;
42488;SDS011;28118;52.388;9.452;2022-09-03T20:56:10;16.15;;;14.63;;
42488;SDS011;28118;52.388;9.452;2022-09-03T20:58:49;18.03;;;16.03;;
42488;SDS011;28118;52.388;9.452;2022-09-03T21:01:33;15.35;;;13.27;;
42488;SDS011;28118;52.388;9.452;2022-09-03T21:10:28;11.95;;;9.52;;
42488;SDS011;28118;52.388;9.452;2022-09-03T21:13:08;13.25;;;10.02;;
42488;SDS011;28118;52.388;9.452;2022-09-03T21:16:11;13.25;;;9.00;;
42488;SDS011;28118;52.388;9.452;2022-09-03T21:18:45;11.07;;;8.80;;
42488;SDS011;28118;52.388;9.452;2022-09-03T21:27:48;8.40;;;5.95;;
42488;SDS011;28118;52.388;9.452;2022-09-03T21:30:20;7.53;;;5.07;;
42488;SDS011;28118;52.388;9.452;2022-09-03T21:32:54;8.98;;;5.55;;
42488;SDS011;28118;52.388;9.452;2022-09-03T21:35:27;7.50;;;5.55;;
42488;SDS011;28118;52.388;9.452;2022-09-03T21:38:01;26.38;;;19.55;;
42488;SDS011;28118;52.388;9.452;2022-09-03T21:40:42;32.83;;;22.25;;
42488;SDS011;28118;52.388;9.452;2022-09-03T21:43:27;8.50;;;7.45;;
42488;SDS011;28118;52.388;9.452;2022-09-03T21:46:14;8.45;;;5.22;;
42488;SDS011;28118;52.388;9.452;2022-09-03T21:48:49;11.63;;;5.30;;
42488;SDS011;28118;52.388;9.452;2022-09-03T21:54:05;5.85;;;5.25;;